sensor_id;sensor_type;location;lat;lon;timestamp;P1;durP1;ratioP1;P2;durP2;ratioP2
18084;SDS011;9169;44.492;11.372;2023-03-26T00:01:38;11.10;;;3.63;;
18084;SDS011;9169;44.492;11.372;2023-03-26T00:04:12;12.53;;;3.90;;
18084;SDS011;9169;44.492;11.372;2023-03-26T00:06:40;12.03;;;3.40;;
18084;SDS011;9169;44.492;11.372;2023-03-26T00:09:10;10.57;;;3.70;;
18084;SDS011;9169;44.492;11.372;2023-03-26T00:11:41;12.77;;;4.30;;
18084;SDS011;9169;44.492;11.372;2023-03-26T00:14:11;13.03;;;3.80;;
18084;SDS011;9169;44.492;11.372;2023-03-26T00:16:43;10.07;;;3.30;;
18084;SDS011;9169;44.492;11.372;2023-03-26T00:19:13;11.50;;;3.50;;
18084;SDS011;9169;44.492;11.372;2023-03-26T00:21:42;9.63;;;3.50;;
18084;SDS011;9169;44.492;11.372;2023-03-26T00:24:12;10.93;;;3.23;;
18084;SDS011;9169;44.492;11.372;2023-03-26T00:26:43;15.00;;;3.50;;
18084;SDS011;9169;44.492;11.372;2023-03-26T00:29:18;16.43;;;3.70;;
18084;SDS011;9169;44.492;11.372;2023-03-26T00:31:48;10.97;;;3.30;;
18084;SDS011;9169;44.492;11.372;2023-03-26T00:34:17;8.33;;;3.60;;
18084;SDS011;9169;44.492;11.372;2023-03-26T00:36:46;15.17;;;3.43;;
18084;SDS011;9169;44.492;11.372;2023-03-26T00:39:20;13.33;;;3.37;;
18084;SDS011;9169;44.492;11.372;2023-03-26T00:41:51;10.83;;;3.13;;
18084;SDS011;9169;44.492;11.372;2023-03-26T00:44:20;10.10;;;3.10;;
18084;SDS011;9169;44.492;11.372;2023-03-26T00:46:48;11.27;;;3.50;;
18084;SDS011;9169;44.492;11.372;2023-03-26T00:49:17;10.47;;;3.80;;
18084;SDS011;9169;44.492;11.372;2023-03-26T00:51:46;15.57;;;3.50;;
18084;SDS011;9169;44.492;11.372;2023-03-26T00:54:14;14.10;;;3.80;;
18084;SDS011;9169;44.492;11.372;2023-03-26T00:56:43;14.03;;;4.50;;
18084;SDS011;9169;44.492;11.372;2023-03-26T00:59:13;11.00;;;3.33;;
18084;SDS011;9169;44.492;11.372;2023-03-26T01:01:42;15.73;;;3.93;;
18084;SDS011;9169;44.492;11.372;2023-03-26T01:04:18;10.10;;;3.17;;
18084;SDS011;9169;44.492;11.372;2023-03-26T01:06:53;11.30;;;3.73;;
18084;SDS011;9169;44.492;11.372;2023-03-26T01:09:23;14.63;;;4.30;;
18084;SDS011;9169;44.492;11.372;2023-03-26T01:11:59;11.30;;;3.43;;
18084;SDS011;9169;44.492;11.372;2023-03-26T01:14:30;16.60;;;4.70;;
18084;SDS011;9169;44.492;11.372;2023-03-26T01:16:59;12.83;;;3.20;;
18084;SDS011;9169;44.492;11.372;2023-03-26T01:19:30;20.30;;;3.73;;
18084;SDS011;9169;44.492;11.372;2023-03-26T01:22:06;15.40;;;3.60;;
18084;SDS011;9169;44.492;11.372;2023-03-26T01:24:38;12.83;;;3.60;;
18084;SDS011;9169;44.492;11.372;2023-03-26T01:29:58;13.83;;;3.80;;
18084;SDS011;9169;44.492;11.372;2023-03-26T01:32:39;13.53;;;4.20;;
18084;SDS011;9169;44.492;11.372;2023-03-26T01:35:27;13.60;;;3.97;;
18084;SDS011;9169;44.492;11.372;2023-03-26T01:38:05;12.30;;;4.00;;
18084;SDS011;9169;44.492;11.372;2023-03-26T01:40:44;9.00;;;3.20;;
18084;SDS011;9169;44.492;11.372;2023-03-26T01:43:18;8.73;;;3.73;;
18084;SDS011;9169;44.492;11.372;2023-03-26T01:45:54;17.00;;;4.43;;
18084;SDS011;9169;44.492;11.372;2023-03-26T01:48:28;11.80;;;3.73;;
18084;SDS011;9169;44.492;11.372;2023-03-26T01:50:58;14.67;;;3.60;;
18084;SDS011;9169;44.492;11.372;2023-03-26T01:53:26;12.90;;;3.90;;
18084;SDS011;9169;44.492;11.372;2023-03-26T01:56:00;12.83;;;3.87;;
18084;SDS011;9169;44.492;11.372;2023-03-26T01:58:37;11.30;;;3.30;;
18084;SDS011;9169;44.492;11.372;2023-03-26T02:01:15;12.60;;;3.07;;
18084;SDS011;9169;44.492;11.372;2023-03-26T02:03:54;12.60;;;3.73;;
18084;SDS011;9169;44.492;11.372;2023-03-26T02:06:29;16.17;;;4.93;;
18084;SDS011;9169;44.492;11.372;2023-03-26T02:09:05;10.30;;;3.97;;
18084;SDS011;9169;44.492;11.372;2023-03-26T02:11:38;10.60;;;3.90;;
18084;SDS011;9169;44.492;11.372;2023-03-26T02:14:08;13.87;;;5.60;;
18084;SDS011;9169;44.492;11.372;2023-03-26T02:16:37;12.20;;;4.73;;
18084;SDS011;9169;44.492;11.372;2023-03-26T02:19:06;16.47;;;5.37;;
18084;SDS011;9169;44.492;11.372;2023-03-26T02:21:41;10.00;;;4.70;;
18084;SDS011;9169;44.492;11.372;2023-03-26T02:24:09;16.33;;;6.30;;
18084;SDS011;9169;44.492;11.372;2023-03-26T02:26:40;11.53;;;7.00;;
18084;SDS011;9169;44.492;11.372;2023-03-26T02:29:10;16.60;;;7.97;;
18084;SDS011;9169;44.492;11.372;2023-03-26T02:31:41;15.50;;;7.83;;
18084;SDS011;9169;44.492;11.372;2023-03-26T02:34:10;13.00;;;7.73;;
18084;SDS011;9169;44.492;11.372;2023-03-26T02:36:47;16.87;;;9.00;;
18084;SDS011;9169;44.492;11.372;2023-03-26T02:39:16;19.80;;;8.57;;
18084;SDS011;9169;44.492;11.372;2023-03-26T02:41:55;21.53;;;10.13;;
18084;SDS011;9169;44.492;11.372;2023-03-26T02:44:25;15.53;;;11.07;;
18084;SDS011;9169;44.492;11.372;2023-03-26T02:46:57;15.60;;;9.63;;
18084;SDS011;9169;44.492;11.372;2023-03-26T02:49:58;16.83;;;10.73;;
18084;SDS011;9169;44.492;11.372;2023-03-26T02:52:45;13.40;;;9.47;;
18084;SDS011;9169;44.492;11.372;2023-03-26T02:55:16;17.67;;;10.23;;
18084;SDS011;9169;44.492;11.372;2023-03-26T02:57:48;14.10;;;10.60;;
18084;SDS011;9169;44.492;11.372;2023-03-26T03:00:19;18.77;;;11.73;;
18084;SDS011;9169;44.492;11.372;2023-03-26T03:03:07;17.47;;;11.37;;
18084;SDS011;9169;44.492;11.372;2023-03-26T03:05:55;21.43;;;12.30;;
18084;SDS011;9169;44.492;11.372;2023-03-26T03:08:29;19.33;;;10.80;;
18084;SDS011;9169;44.492;11.372;2023-03-26T03:11:22;19.80;;;12.17;;
18084;SDS011;9169;44.492;11.372;2023-03-26T03:13:53;20.30;;;11.17;;
18084;SDS011;9169;44.492;11.372;2023-03-26T03:16:24;15.27;;;10.93;;
18084;SDS011;9169;44.492;11.372;2023-03-26T03:18:56;20.50;;;11.77;;
18084;SDS011;9169;44.492;11.372;2023-03-26T03:21:33;18.20;;;11.90;;
18084;SDS011;9169;44.492;11.372;2023-03-26T03:24:02;16.60;;;11.63;;
18084;SDS011;9169;44.492;11.372;2023-03-26T03:26:39;16.30;;;11.40;;
18084;SDS011;9169;44.492;11.372;2023-03-26T03:29:25;14.30;;;12.37;;
18084;SDS011;9169;44.492;11.372;2023-03-26T03:31:59;17.47;;;11.93;;
18084;SDS011;9169;44.492;11.372;2023-03-26T03:34:43;20.53;;;12.13;;
18084;SDS011;9169;44.492;11.372;2023-03-26T03:37:12;18.30;;;11.50;;
18084;SDS011;9169;44.492;11.372;2023-03-26T03:39:47;18.07;;;12.40;;
18084;SDS011;9169;44.492;11.372;2023-03-26T03:42:19;18.63;;;12.93;;
18084;SDS011;9169;44.492;11.372;2023-03-26T03:44:52;19.50;;;12.30;;
18084;SDS011;9169;44.492;11.372;2023-03-26T03:47:41;15.80;;;11.33;;
18084;SDS011;9169;44.492;11.372;2023-03-26T03:50:11;17.43;;;12.67;;
18084;SDS011;9169;44.492;11.372;2023-03-26T03:52:52;23.67;;;12.93;;
18084;SDS011;9169;44.492;11.372;2023-03-26T03:55:21;19.33;;;12.73;;
18084;SDS011;9169;44.492;11.372;2023-03-26T03:57:53;19.17;;;12.50;;
18084;SDS011;9169;44.492;11.372;2023-03-26T04:00:25;18.17;;;12.13;;
18084;SDS011;9169;44.492;11.372;2023-03-26T04:03:32;18.80;;;11.37;;
18084;SDS011;9169;44.492;11.372;2023-03-26T04:06:10;15.37;;;12.63;;
18084;SDS011;9169;44.492;11.372;2023-03-26T04:08:39;19.40;;;12.97;;
18084;SDS011;9169;44.492;11.372;2023-03-26T04:11:08;19.83;;;13.30;;
18084;SDS011;9169;44.492;11.372;2023-03-26T04:13:57;22.63;;;13.80;;
18084;SDS011;9169;44.492;11.372;2023-03-26T04:16:40;15.47;;;12.57;;
18084;SDS011;9169;44.492;11.372;2023-03-26T04:19:09;16.50;;;12.40;;
18084;SDS011;9169;44.492;11.372;2023-03-26T04:21:38;20.67;;;13.70;;
18084;SDS011;9169;44.492;11.372;2023-03-26T04:24:08;21.37;;;13.07;;
18084;SDS011;9169;44.492;11.372;2023-03-26T04:27:03;19.60;;;13.00;;
18084;SDS011;9169;44.492;11.372;2023-03-26T04:29:37;17.40;;;13.63;;
18084;SDS011;9169;44.492;11.372;2023-03-26T04:32:17;17.17;;;12.20;;
18084;SDS011;9169;44.492;11.372;2023-03-26T04:34:50;17.30;;;13.20;;
18084;SDS011;9169;44.492;11.372;2023-03-26T04:37:24;22.10;;;13.77;;
18084;SDS011;9169;44.492;11.372;2023-03-26T04:40:06;19.00;;;12.77;;
18084;SDS011;9169;44.492;11.372;2023-03-26T04:42:44;20.13;;;13.93;;
18084;SDS011;9169;44.492;11.372;2023-03-26T04:45:29;19.93;;;13.13;;
18084;SDS011;9169;44.492;11.372;2023-03-26T04:48:00;15.97;;;13.10;;
18084;SDS011;9169;44.492;11.372;2023-03-26T04:50:28;20.30;;;13.43;;
18084;SDS011;9169;44.492;11.372;2023-03-26T04:52:58;19.07;;;12.40;;
18084;SDS011;9169;44.492;11.372;2023-03-26T04:55:54;14.23;;;12.53;;
18084;SDS011;9169;44.492;11.372;2023-03-26T04:58:46;16.40;;;12.73;;
18084;SDS011;9169;44.492;11.372;2023-03-26T05:01:19;18.50;;;12.70;;
18084;SDS011;9169;44.492;11.372;2023-03-26T05:03:52;21.73;;;12.63;;
18084;SDS011;9169;44.492;11.372;2023-03-26T05:06:22;17.90;;;13.13;;
18084;SDS011;9169;44.492;11.372;2023-03-26T05:08:52;25.43;;;14.20;;
18084;SDS011;9169;44.492;11.372;2023-03-26T05:11:47;22.17;;;13.87;;
18084;SDS011;9169;44.492;11.372;2023-03-26T05:14:17;18.37;;;12.93;;
18084;SDS011;9169;44.492;11.372;2023-03-26T05:16:48;21.50;;;13.40;;
18084;SDS011;9169;44.492;11.372;2023-03-26T05:19:20;16.77;;;11.40;;
18084;SDS011;9169;44.492;11.372;2023-03-26T05:21:50;19.03;;;12.40;;
18084;SDS011;9169;44.492;11.372;2023-03-26T05:24:18;14.43;;;11.20;;
18084;SDS011;9169;44.492;11.372;2023-03-26T05:26:47;18.80;;;12.37;;
18084;SDS011;9169;44.492;11.372;2023-03-26T05:29:21;20.97;;;12.43;;
18084;SDS011;9169;44.492;11.372;2023-03-26T05:31:52;19.00;;;13.33;;
18084;SDS011;9169;44.492;11.372;2023-03-26T05:34:22;15.97;;;12.33;;
18084;SDS011;9169;44.492;11.372;2023-03-26T05:36:53;16.67;;;12.80;;
18084;SDS011;9169;44.492;11.372;2023-03-26T05:39:39;15.40;;;12.47;;
18084;SDS011;9169;44.492;11.372;2023-03-26T05:42:15;22.93;;;14.00;;
18084;SDS011;9169;44.492;11.372;2023-03-26T05:45:06;18.90;;;13.20;;
18084;SDS011;9169;44.492;11.372;2023-03-26T05:47:36;19.47;;;13.50;;
18084;SDS011;9169;44.492;11.372;2023-03-26T05:50:07;17.87;;;12.73;;
18084;SDS011;9169;44.492;11.372;2023-03-26T05:52:39;22.43;;;13.80;;
18084;SDS011;9169;44.492;11.372;2023-03-26T05:55:36;15.97;;;12.13;;
18084;SDS011;9169;44.492;11.372;2023-03-26T05:58:27;18.37;;;12.83;;
18084;SDS011;9169;44.492;11.372;2023-03-26T06:01:15;16.93;;;12.30;;
18084;SDS011;9169;44.492;11.372;2023-03-26T06:04:03;16.37;;;9.70;;
18084;SDS011;9169;44.492;11.372;2023-03-26T06:06:38;17.23;;;9.80;;
18084;SDS011;9169;44.492;11.372;2023-03-26T06:09:07;8.83;;;3.63;;
18084;SDS011;9169;44.492;11.372;2023-03-26T06:11:38;16.90;;;3.10;;
18084;SDS011;9169;44.492;11.372;2023-03-26T06:14:07;13.07;;;3.70;;
18084;SDS011;9169;44.492;11.372;2023-03-26T06:16:42;13.67;;;3.53;;
18084;SDS011;9169;44.492;11.372;2023-03-26T06:19:18;13.10;;;3.83;;
18084;SDS011;9169;44.492;11.372;2023-03-26T06:22:03;16.07;;;4.10;;
18084;SDS011;9169;44.492;11.372;2023-03-26T06:24:48;19.20;;;4.40;;
18084;SDS011;9169;44.492;11.372;2023-03-26T06:27:41;11.10;;;3.10;;
18084;SDS011;9169;44.492;11.372;2023-03-26T06:30:29;11.57;;;3.40;;
18084;SDS011;9169;44.492;11.372;2023-03-26T06:33:04;11.47;;;2.80;;
18084;SDS011;9169;44.492;11.372;2023-03-26T06:35:41;13.73;;;4.17;;
18084;SDS011;9169;44.492;11.372;2023-03-26T06:38:13;16.23;;;3.37;;
18084;SDS011;9169;44.492;11.372;2023-03-26T06:40:43;12.63;;;4.00;;
18084;SDS011;9169;44.492;11.372;2023-03-26T06:43:23;11.73;;;3.77;;
18084;SDS011;9169;44.492;11.372;2023-03-26T06:45:52;10.03;;;3.77;;
18084;SDS011;9169;44.492;11.372;2023-03-26T06:48:36;13.40;;;4.00;;
18084;SDS011;9169;44.492;11.372;2023-03-26T06:51:34;10.53;;;3.87;;
18084;SDS011;9169;44.492;11.372;2023-03-26T06:54:08;9.53;;;3.30;;
18084;SDS011;9169;44.492;11.372;2023-03-26T06:56:43;12.90;;;3.60;;
18084;SDS011;9169;44.492;11.372;2023-03-26T06:59:21;14.60;;;3.50;;
18084;SDS011;9169;44.492;11.372;2023-03-26T07:02:08;13.20;;;3.17;;
18084;SDS011;9169;44.492;11.372;2023-03-26T07:04:56;12.70;;;3.77;;
18084;SDS011;9169;44.492;11.372;2023-03-26T07:07:43;9.27;;;2.80;;
18084;SDS011;9169;44.492;11.372;2023-03-26T07:10:20;9.70;;;3.03;;
18084;SDS011;9169;44.492;11.372;2023-03-26T07:13:04;10.20;;;3.13;;
18084;SDS011;9169;44.492;11.372;2023-03-26T07:15:56;15.00;;;4.00;;
18084;SDS011;9169;44.492;11.372;2023-03-26T07:18:43;12.70;;;3.80;;
18084;SDS011;9169;44.492;11.372;2023-03-26T07:21:19;11.93;;;3.33;;
18084;SDS011;9169;44.492;11.372;2023-03-26T07:23:49;10.93;;;3.23;;
18084;SDS011;9169;44.492;11.372;2023-03-26T07:26:33;11.17;;;2.80;;
18084;SDS011;9169;44.492;11.372;2023-03-26T07:29:17;12.63;;;3.53;;
18084;SDS011;9169;44.492;11.372;2023-03-26T07:32:10;12.13;;;4.10;;
18084;SDS011;9169;44.492;11.372;2023-03-26T07:34:52;8.47;;;3.20;;
18084;SDS011;9169;44.492;11.372;2023-03-26T07:37:35;12.83;;;3.93;;
18084;SDS011;9169;44.492;11.372;2023-03-26T07:40:35;13.20;;;3.87;;
18084;SDS011;9169;44.492;11.372;2023-03-26T07:43:42;9.23;;;3.13;;
18084;SDS011;9169;44.492;11.372;2023-03-26T07:46:41;14.53;;;3.77;;
18084;SDS011;9169;44.492;11.372;2023-03-26T07:49:37;15.60;;;4.40;;
18084;SDS011;9169;44.492;11.372;2023-03-26T07:52:24;18.60;;;3.80;;
18084;SDS011;9169;44.492;11.372;2023-03-26T07:55:17;11.80;;;3.23;;
18084;SDS011;9169;44.492;11.372;2023-03-26T07:58:08;10.87;;;3.60;;
18084;SDS011;9169;44.492;11.372;2023-03-26T08:01:09;9.30;;;3.20;;
18084;SDS011;9169;44.492;11.372;2023-03-26T08:03:54;12.60;;;5.27;;
18084;SDS011;9169;44.492;11.372;2023-03-26T08:06:58;10.90;;;6.40;;
18084;SDS011;9169;44.492;11.372;2023-03-26T08:10:02;11.90;;;7.83;;
18084;SDS011;9169;44.492;11.372;2023-03-26T08:12:51;14.97;;;7.70;;
18084;SDS011;9169;44.492;11.372;2023-03-26T08:15:27;14.20;;;7.73;;
18084;SDS011;9169;44.492;11.372;2023-03-26T08:18:03;11.60;;;6.80;;
18084;SDS011;9169;44.492;11.372;2023-03-26T08:20:47;13.43;;;7.73;;
18084;SDS011;9169;44.492;11.372;2023-03-26T08:23:21;14.80;;;9.10;;
18084;SDS011;9169;44.492;11.372;2023-03-26T08:25:56;14.17;;;9.17;;
18084;SDS011;9169;44.492;11.372;2023-03-26T08:28:35;14.30;;;9.50;;
18084;SDS011;9169;44.492;11.372;2023-03-26T08:31:15;13.63;;;8.57;;
18084;SDS011;9169;44.492;11.372;2023-03-26T08:33:49;18.97;;;10.30;;
18084;SDS011;9169;44.492;11.372;2023-03-26T08:36:18;17.50;;;12.97;;
18084;SDS011;9169;44.492;11.372;2023-03-26T08:38:47;19.00;;;10.43;;
18084;SDS011;9169;44.492;11.372;2023-03-26T08:57:25;16.30;;;4.70;;
18084;SDS011;9169;44.492;11.372;2023-03-26T09:12:26;9.00;;;3.47;;
18084;SDS011;9169;44.492;11.372;2023-03-26T09:15:23;9.60;;;3.50;;
18084;SDS011;9169;44.492;11.372;2023-03-26T09:21:17;6.70;;;2.87;;
18084;SDS011;9169;44.492;11.372;2023-03-26T09:24:19;9.03;;;3.50;;
18084;SDS011;9169;44.492;11.372;2023-03-26T09:27:17;20.37;;;3.70;;
18084;SDS011;9169;44.492;11.372;2023-03-26T09:30:22;8.90;;;3.30;;
18084;SDS011;9169;44.492;11.372;2023-03-26T09:33:20;7.67;;;2.40;;
18084;SDS011;9169;44.492;11.372;2023-03-26T09:36:18;9.43;;;3.40;;
18084;SDS011;9169;44.492;11.372;2023-03-26T09:38:55;10.00;;;3.57;;
18084;SDS011;9169;44.492;11.372;2023-03-26T09:41:34;7.17;;;3.17;;
18084;SDS011;9169;44.492;11.372;2023-03-26T09:47:35;9.90;;;3.13;;
18084;SDS011;9169;44.492;11.372;2023-03-26T09:50:27;9.13;;;3.40;;
18084;SDS011;9169;44.492;11.372;2023-03-26T09:53:07;8.50;;;3.00;;
18084;SDS011;9169;44.492;11.372;2023-03-26T09:55:51;9.97;;;3.70;;
18084;SDS011;9169;44.492;11.372;2023-03-26T09:58:40;9.03;;;3.07;;
18084;SDS011;9169;44.492;11.372;2023-03-26T10:01:27;11.43;;;3.00;;
18084;SDS011;9169;44.492;11.372;2023-03-26T10:04:10;9.63;;;3.57;;
18084;SDS011;9169;44.492;11.372;2023-03-26T10:07:16;8.37;;;3.13;;
18084;SDS011;9169;44.492;11.372;2023-03-26T10:10:07;7.90;;;3.03;;
18084;SDS011;9169;44.492;11.372;2023-03-26T10:12:47;9.83;;;3.30;;
18084;SDS011;9169;44.492;11.372;2023-03-26T10:15:25;7.70;;;3.50;;
18084;SDS011;9169;44.492;11.372;2023-03-26T10:18:06;13.50;;;3.80;;
18084;SDS011;9169;44.492;11.372;2023-03-26T10:20:48;9.83;;;3.70;;
18084;SDS011;9169;44.492;11.372;2023-03-26T10:23:29;7.40;;;3.10;;
18084;SDS011;9169;44.492;11.372;2023-03-26T10:26:15;9.20;;;3.70;;
18084;SDS011;9169;44.492;11.372;2023-03-26T10:29:06;8.37;;;3.17;;
18084;SDS011;9169;44.492;11.372;2023-03-26T10:31:46;9.00;;;3.97;;
18084;SDS011;9169;44.492;11.372;2023-03-26T10:34:30;8.97;;;4.00;;
18084;SDS011;9169;44.492;11.372;2023-03-26T10:37:12;6.40;;;3.00;;
18084;SDS011;9169;44.492;11.372;2023-03-26T10:39:57;10.23;;;3.80;;
18084;SDS011;9169;44.492;11.372;2023-03-26T10:42:42;7.07;;;3.13;;
18084;SDS011;9169;44.492;11.372;2023-03-26T10:45:40;10.33;;;3.20;;
18084;SDS011;9169;44.492;11.372;2023-03-26T10:48:35;8.17;;;3.50;;
18084;SDS011;9169;44.492;11.372;2023-03-26T10:51:27;9.23;;;3.07;;
18084;SDS011;9169;44.492;11.372;2023-03-26T10:54:10;8.13;;;2.87;;
18084;SDS011;9169;44.492;11.372;2023-03-26T10:56:45;7.23;;;3.20;;
18084;SDS011;9169;44.492;11.372;2023-03-26T10:59:16;6.00;;;2.50;;
18084;SDS011;9169;44.492;11.372;2023-03-26T11:01:54;10.50;;;2.93;;
18084;SDS011;9169;44.492;11.372;2023-03-26T11:04:33;7.93;;;2.73;;
18084;SDS011;9169;44.492;11.372;2023-03-26T11:07:11;6.07;;;2.40;;
18084;SDS011;9169;44.492;11.372;2023-03-26T11:09:48;7.27;;;2.70;;
18084;SDS011;9169;44.492;11.372;2023-03-26T11:12:22;6.87;;;2.50;;
18084;SDS011;9169;44.492;11.372;2023-03-26T11:14:58;5.87;;;2.37;;
18084;SDS011;9169;44.492;11.372;2023-03-26T11:17:40;4.43;;;2.37;;
18084;SDS011;9169;44.492;11.372;2023-03-26T11:20:17;9.10;;;2.90;;
18084;SDS011;9169;44.492;11.372;2023-03-26T11:23:00;7.83;;;3.10;;
18084;SDS011;9169;44.492;11.372;2023-03-26T11:25:46;7.97;;;2.70;;
18084;SDS011;9169;44.492;11.372;2023-03-26T11:28:34;8.03;;;2.50;;
18084;SDS011;9169;44.492;11.372;2023-03-26T11:31:18;9.97;;;3.50;;
18084;SDS011;9169;44.492;11.372;2023-03-26T11:33:55;7.13;;;3.00;;
18084;SDS011;9169;44.492;11.372;2023-03-26T11:36:32;5.73;;;2.70;;
18084;SDS011;9169;44.492;11.372;2023-03-26T11:39:05;6.20;;;3.33;;
18084;SDS011;9169;44.492;11.372;2023-03-26T11:41:40;6.23;;;2.67;;
18084;SDS011;9169;44.492;11.372;2023-03-26T11:44:23;6.50;;;2.40;;
18084;SDS011;9169;44.492;11.372;2023-03-26T11:46:54;4.83;;;2.37;;
18084;SDS011;9169;44.492;11.372;2023-03-26T11:49:28;7.87;;;2.93;;
18084;SDS011;9169;44.492;11.372;2023-03-26T11:51:59;4.60;;;2.20;;
18084;SDS011;9169;44.492;11.372;2023-03-26T11:54:29;6.77;;;3.10;;
18084;SDS011;9169;44.492;11.372;2023-03-26T11:57:01;5.80;;;3.00;;
18084;SDS011;9169;44.492;11.372;2023-03-26T11:59:34;7.10;;;3.03;;
18084;SDS011;9169;44.492;11.372;2023-03-26T12:02:15;5.17;;;2.80;;
18084;SDS011;9169;44.492;11.372;2023-03-26T12:05:02;4.60;;;2.33;;
18084;SDS011;9169;44.492;11.372;2023-03-26T12:07:46;7.40;;;2.30;;
18084;SDS011;9169;44.492;11.372;2023-03-26T12:10:23;7.00;;;2.73;;
18084;SDS011;9169;44.492;11.372;2023-03-26T12:12:56;5.77;;;2.20;;
18084;SDS011;9169;44.492;11.372;2023-03-26T12:15:27;5.80;;;2.50;;
18084;SDS011;9169;44.492;11.372;2023-03-26T12:17:58;6.10;;;3.23;;
18084;SDS011;9169;44.492;11.372;2023-03-26T12:20:46;5.67;;;2.77;;
18084;SDS011;9169;44.492;11.372;2023-03-26T12:26:04;6.67;;;2.10;;
18084;SDS011;9169;44.492;11.372;2023-03-26T12:28:44;5.47;;;2.57;;
18084;SDS011;9169;44.492;11.372;2023-03-26T12:31:15;6.47;;;2.53;;
18084;SDS011;9169;44.492;11.372;2023-03-26T12:34:02;12.03;;;2.30;;
18084;SDS011;9169;44.492;11.372;2023-03-26T12:36:37;5.27;;;2.10;;
18084;SDS011;9169;44.492;11.372;2023-03-26T12:39:20;6.20;;;2.37;;
18084;SDS011;9169;44.492;11.372;2023-03-26T12:41:58;7.70;;;2.47;;
18084;SDS011;9169;44.492;11.372;2023-03-26T12:44:29;5.10;;;2.70;;
18084;SDS011;9169;44.492;11.372;2023-03-26T12:47:13;6.87;;;2.10;;
18084;SDS011;9169;44.492;11.372;2023-03-26T12:49:46;5.53;;;2.77;;
18084;SDS011;9169;44.492;11.372;2023-03-26T12:52:33;4.63;;;2.07;;
18084;SDS011;9169;44.492;11.372;2023-03-26T12:55:17;7.33;;;2.40;;
18084;SDS011;9169;44.492;11.372;2023-03-26T12:58:01;3.87;;;2.00;;
18084;SDS011;9169;44.492;11.372;2023-03-26T13:00:44;4.70;;;2.10;;
18084;SDS011;9169;44.492;11.372;2023-03-26T13:03:26;6.00;;;2.23;;
18084;SDS011;9169;44.492;11.372;2023-03-26T13:06:11;10.10;;;2.10;;
18084;SDS011;9169;44.492;11.372;2023-03-26T13:09:07;6.00;;;2.40;;
18084;SDS011;9169;44.492;11.372;2023-03-26T13:11:54;6.13;;;2.33;;
18084;SDS011;9169;44.492;11.372;2023-03-26T13:14:33;7.87;;;2.43;;
18084;SDS011;9169;44.492;11.372;2023-03-26T13:17:20;6.70;;;3.03;;
18084;SDS011;9169;44.492;11.372;2023-03-26T13:19:55;6.10;;;2.40;;
18084;SDS011;9169;44.492;11.372;2023-03-26T13:22:35;3.67;;;1.80;;
18084;SDS011;9169;44.492;11.372;2023-03-26T13:25:17;7.20;;;2.20;;
18084;SDS011;9169;44.492;11.372;2023-03-26T13:28:06;6.13;;;2.50;;
18084;SDS011;9169;44.492;11.372;2023-03-26T13:30:48;7.00;;;1.90;;
18084;SDS011;9169;44.492;11.372;2023-03-26T13:36:14;6.00;;;2.10;;
18084;SDS011;9169;44.492;11.372;2023-03-26T13:41:52;5.67;;;2.67;;
18084;SDS011;9169;44.492;11.372;2023-03-26T13:44:35;6.40;;;2.43;;
18084;SDS011;9169;44.492;11.372;2023-03-26T13:47:13;6.03;;;2.40;;
18084;SDS011;9169;44.492;11.372;2023-03-26T13:49:45;4.67;;;1.90;;
18084;SDS011;9169;44.492;11.372;2023-03-26T13:52:19;7.20;;;2.50;;
18084;SDS011;9169;44.492;11.372;2023-03-26T13:54:54;7.20;;;2.00;;
18084;SDS011;9169;44.492;11.372;2023-03-26T13:57:47;4.23;;;2.03;;
18084;SDS011;9169;44.492;11.372;2023-03-26T14:00:22;5.30;;;2.10;;
18084;SDS011;9169;44.492;11.372;2023-03-26T14:03:00;5.27;;;2.10;;
18084;SDS011;9169;44.492;11.372;2023-03-26T14:05:37;7.40;;;2.10;;
18084;SDS011;9169;44.492;11.372;2023-03-26T14:08:10;6.70;;;2.33;;
18084;SDS011;9169;44.492;11.372;2023-03-26T14:10:46;6.93;;;2.20;;
18084;SDS011;9169;44.492;11.372;2023-03-26T14:13:22;6.37;;;2.40;;
18084;SDS011;9169;44.492;11.372;2023-03-26T14:15:54;3.30;;;1.80;;
18084;SDS011;9169;44.492;11.372;2023-03-26T14:18:27;4.27;;;2.30;;
18084;SDS011;9169;44.492;11.372;2023-03-26T14:21:12;8.80;;;2.70;;
18084;SDS011;9169;44.492;11.372;2023-03-26T14:24:08;4.33;;;2.10;;
18084;SDS011;9169;44.492;11.372;2023-03-26T14:26:58;4.07;;;1.50;;
18084;SDS011;9169;44.492;11.372;2023-03-26T14:29:42;4.77;;;1.90;;
18084;SDS011;9169;44.492;11.372;2023-03-26T14:32:22;6.10;;;3.07;;
18084;SDS011;9169;44.492;11.372;2023-03-26T14:35:02;6.07;;;2.03;;
18084;SDS011;9169;44.492;11.372;2023-03-26T14:37:47;4.73;;;2.77;;
18084;SDS011;9169;44.492;11.372;2023-03-26T14:40:39;4.87;;;1.97;;
18084;SDS011;9169;44.492;11.372;2023-03-26T14:46:20;5.23;;;2.03;;
18084;SDS011;9169;44.492;11.372;2023-03-26T14:49:08;5.40;;;2.20;;
18084;SDS011;9169;44.492;11.372;2023-03-26T14:51:55;5.80;;;1.93;;
18084;SDS011;9169;44.492;11.372;2023-03-26T14:54:29;7.20;;;2.70;;
18084;SDS011;9169;44.492;11.372;2023-03-26T14:57:11;4.70;;;2.00;;
18084;SDS011;9169;44.492;11.372;2023-03-26T15:00:02;6.70;;;2.10;;
18084;SDS011;9169;44.492;11.372;2023-03-26T15:06:03;4.17;;;2.00;;
18084;SDS011;9169;44.492;11.372;2023-03-26T15:11:59;5.30;;;2.00;;
18084;SDS011;9169;44.492;11.372;2023-03-26T15:15:00;4.20;;;2.00;;
18084;SDS011;9169;44.492;11.372;2023-03-26T15:21:17;7.33;;;2.30;;
18084;SDS011;9169;44.492;11.372;2023-03-26T15:30:19;4.43;;;2.10;;
18084;SDS011;9169;44.492;11.372;2023-03-26T15:33:13;5.40;;;1.80;;
18084;SDS011;9169;44.492;11.372;2023-03-26T15:42:48;6.83;;;2.80;;
18084;SDS011;9169;44.492;11.372;2023-03-26T15:45:34;7.70;;;2.13;;
18084;SDS011;9169;44.492;11.372;2023-03-26T15:48:05;4.73;;;2.23;;
18084;SDS011;9169;44.492;11.372;2023-03-26T15:53:52;6.53;;;4.20;;
18084;SDS011;9169;44.492;11.372;2023-03-26T15:56:27;5.63;;;2.00;;
18084;SDS011;9169;44.492;11.372;2023-03-26T15:59:14;4.17;;;2.33;;
18084;SDS011;9169;44.492;11.372;2023-03-26T16:01:57;6.10;;;2.60;;
18084;SDS011;9169;44.492;11.372;2023-03-26T16:04:41;4.97;;;2.50;;
18084;SDS011;9169;44.492;11.372;2023-03-26T16:07:29;5.33;;;2.80;;
18084;SDS011;9169;44.492;11.372;2023-03-26T16:10:17;6.30;;;2.40;;
18084;SDS011;9169;44.492;11.372;2023-03-26T16:22:08;6.93;;;2.40;;
18084;SDS011;9169;44.492;11.372;2023-03-26T16:24:43;7.13;;;2.70;;
18084;SDS011;9169;44.492;11.372;2023-03-26T16:30:13;8.50;;;2.63;;
18084;SDS011;9169;44.492;11.372;2023-03-26T16:32:54;6.97;;;2.50;;
18084;SDS011;9169;44.492;11.372;2023-03-26T16:35:38;9.47;;;2.53;;
18084;SDS011;9169;44.492;11.372;2023-03-26T16:38:19;8.93;;;2.70;;
18084;SDS011;9169;44.492;11.372;2023-03-26T16:40:57;6.20;;;2.27;;
18084;SDS011;9169;44.492;11.372;2023-03-26T16:43:38;5.53;;;2.50;;
18084;SDS011;9169;44.492;11.372;2023-03-26T16:46:28;7.60;;;2.40;;
18084;SDS011;9169;44.492;11.372;2023-03-26T16:49:07;7.40;;;2.60;;
18084;SDS011;9169;44.492;11.372;2023-03-26T16:52:03;5.60;;;2.50;;
18084;SDS011;9169;44.492;11.372;2023-03-26T16:54:43;7.50;;;2.50;;
18084;SDS011;9169;44.492;11.372;2023-03-26T16:57:18;5.50;;;2.23;;
18084;SDS011;9169;44.492;11.372;2023-03-26T17:00:04;4.60;;;2.17;;
18084;SDS011;9169;44.492;11.372;2023-03-26T17:03:11;5.90;;;2.43;;
18084;SDS011;9169;44.492;11.372;2023-03-26T17:05:59;5.87;;;2.90;;
18084;SDS011;9169;44.492;11.372;2023-03-26T17:08:43;5.23;;;2.20;;
18084;SDS011;9169;44.492;11.372;2023-03-26T17:11:20;5.07;;;2.43;;
18084;SDS011;9169;44.492;11.372;2023-03-26T17:13:56;7.73;;;2.60;;
18084;SDS011;9169;44.492;11.372;2023-03-26T17:16:33;5.57;;;1.97;;
18084;SDS011;9169;44.492;11.372;2023-03-26T17:19:09;6.20;;;2.43;;